• Join FlightAware (Why Join?)
  • Login
  • US Flag 
05:06AM EDT


 

Airport Tracker/Info


-or-


 

Live Flight TrackerFlight Track Log ✈ GJS6221 ✈ 06-Oct-2013 ✈ KLGA - KSAV

Flight Track Log - Related Links

Times and Time Zones

All times are in EDT time to prevent confusion due to time zone crossing. See the GJS6221 flight status page for this flight to view local times or setup timezone preferences in your user account.

Time Position Orientation Groundspeed Altitude Reporting Facility
EDT Latitude Longitude Course Direction KTS MPH feet Rate Location/Type
02:02PM 40.7500 -73.8333 180° South 162 186 2,000  Level New York TRACON
02:03PM 40.6833 -73.8333 180° South 207 238 4,300 2,340 Climbing New York TRACON
02:04PM 40.6333 -73.8667 207° Southwest 239 275 6,700 2,280 Climbing New York TRACON
02:05PM 40.5833 -73.9167 217° Southwest 250 288 8,700 1,740 Climbing New York TRACON
02:06PM 40.5167 -73.9667 210° Southwest 279 321 10,100 660 Climbing New York TRACON
02:07PM 40.4500 -74.0333 217° Southwest 313 360 10,100 660 Level New York TRACON
02:08PM 40.3667 -74.0667 197° South 339 390 11,500 1,320 Climbing New York TRACON
02:09PM 40.2597 -74.1272 203° Southwest 371 427 13,100 1,440 Climbing New York Center
02:11PM 40.0992 -74.2056 200° South 378 435 15,700 1,560 Climbing Washington Center
02:12PM 40.0061 -74.2589 204° Southwest 383 441 17,400 1,440 Climbing Washington Center
02:13PM 39.9281 -74.3522 223° Southwest 377 434 18,700 1,260 Climbing Washington Center
02:14PM 39.8497 -74.4483 223° Southwest 383 441 19,900 1,200 Climbing Washington Center
02:15PM 39.7714 -74.5442 223° Southwest 388 447 21,100 1,140 Climbing Washington Center
02:16PM 39.6889 -74.6422 222° Southwest 393 452 22,300 1,260 Climbing Washington Center
02:17PM 39.6083 -74.7403 223° Southwest 398 458 23,600 1,140 Climbing Washington Center
02:18PM 39.5258 -74.8408 223° Southwest 398 458 24,600 960 Climbing Washington Center
02:19PM 39.4431 -74.9386 222° Southwest 403 464 25,600 960 Climbing Washington Center
02:20PM 39.3350 -75.0281 213° Southwest 414 476 26,600 900 Climbing Washington Center
02:21PM 39.2353 -75.1067 211° Southwest 419 482 27,500 840 Climbing Washington Center
02:22PM 39.1336 -75.1903 213° Southwest 429 494 28,300 780 Climbing Washington Center
02:23PM 39.0294 -75.2683 210° Southwest 429 494 29,100 840 Climbing Washington Center
02:24PM 38.9275 -75.3514 212° Southwest 429 494 30,000 840 Climbing Washington Center
02:25PM 38.8236 -75.4317 211° Southwest 434 499 30,800 660 Climbing Washington Center
02:26PM 38.7172 -75.5144 211° Southwest 440 506 31,400 540 Climbing Washington Center
02:27PM 38.6131 -75.5917 210° Southwest 445 512 32,000 600 Climbing Washington Center
02:28PM 38.5047 -75.6767 212° Southwest 451 519 32,600 600 Climbing Washington Center
02:29PM 38.3983 -75.7586 211° Southwest 451 519 33,200 540 Climbing Washington Center
02:30PM 38.3000 -75.8297 210° Southwest 451 519 33,800 660 Climbing Washington Center
02:31PM 38.1914 -75.9114 211° Southwest 451 519 34,600 780 Climbing Washington Center
02:32PM 38.0892 -75.9900 211° Southwest 451 519 35,400 720 Climbing Washington Center
02:33PM 37.9844 -76.0686 211° Southwest 445 512 36,100 540 Climbing Washington Center
02:34PM 37.8800 -76.1469 211° Southwest 445 512 36,600 480 Climbing Washington Center
02:35PM 37.7731 -76.2275 211° Southwest 450 518 37,100 480 Climbing Washington Center
02:36PM 37.6706 -76.3053 211° Southwest 450 518 37,600 420 Climbing Washington Center
02:37PM 37.5658 -76.3831 210° Southwest 450 518 38,000 180 Climbing Washington Center
02:38PM 37.4608 -76.4578 209° Southwest 450 518 38,000  Level Washington Center
02:39PM 37.3519 -76.5403 211° Southwest 450 518 38,000  Level Washington Center
02:40PM 37.2447 -76.6172 210° Southwest 450 518 38,000  Level Washington Center
02:41PM 37.1356 -76.6992 211° Southwest 450 518 38,000  Level Washington Center
02:42PM 37.0286 -76.7783 211° Southwest 450 518 38,000  Level Washington Center
02:43PM 36.9214 -76.8597 211° Southwest 450 518 38,000  Level Washington Center
02:44PM 36.8142 -76.9383 210° Southwest 450 518 38,000  Level Washington Center
02:45PM 36.7089 -77.0194 212° Southwest 450 518 38,000  Level Washington Center
02:46PM 36.6117 -77.1133 218° Southwest 450 518 38,000  Level Washington Center
02:47PM 36.5125 -77.2044 216° Southwest 450 518 38,000  Level Washington Center
02:48PM 36.4153 -77.2981 218° Southwest 450 518 38,000  Level Washington Center
02:49PM 36.3136 -77.3886 216° Southwest 450 518 38,000  Level Washington Center
02:50PM 36.2119 -77.4892 219° Southwest 450 518 38,000  Level Washington Center
02:51PM 36.1125 -77.5794 216° Southwest 444 511 38,000  Level Washington Center
02:52PM 36.0150 -77.6719 218° Southwest 444 511 38,000  Level Washington Center
02:53PM 35.9111 -77.7592 214° Southwest 444 511 38,000  Level Washington Center
02:54PM 35.8075 -77.8383 212° Southwest 444 511 38,000  Level Washington Center
02:55PM 35.7017 -77.9197 212° Southwest 449 517 38,000  Level Washington Center
02:56PM 35.5978 -77.9983 212° Southwest 449 517 38,000  Level Washington Center
02:57PM 35.4917 -78.0819 213° Southwest 449 517 38,000  Level Washington Center
02:58PM 35.3878 -78.1603 212° Southwest 449 517 38,000  Level Washington Center
02:59PM 35.2797 -78.2433 212° Southwest 449 517 38,000 -120 Level Washington Center
03:00PM 35.1756 -78.3261 213° Southwest 449 517 37,800 -720 Descending Washington Center
03:01PM 35.0692 -78.4089 212° Southwest 449 517 36,700 -960 Descending Washington Center
03:02PM 34.9628 -78.4939 213° Southwest 449 517 36,000 -360 Descending Washington Center
03:03PM 34.8567 -78.5736 212° Southwest 449 517 36,000  Level Washington Center
03:04PM 34.7567 -78.6508 212° Southwest 443 510 36,000  Level Washington Center
03:05PM 34.6500 -78.7325 212° Southwest 448 516 36,000  Level Washington Center
03:06PM 34.5219 -78.8253 211° Southwest 448 516 36,000  Level Jacksonville Center
03:07PM 34.4203 -78.9131 215° Southwest 448 516 36,000  Level Jacksonville Center
03:08PM 34.3125 -78.9986 213° Southwest 454 522 36,000  Level Jacksonville Center
03:09PM 34.2172 -79.0933 219° Southwest 454 522 36,000  Level Jacksonville Center
03:10PM 34.1222 -79.1953 222° Southwest 459 528 36,000  Level Jacksonville Center
03:11PM 34.0292 -79.2967 222° Southwest 459 528 36,000 -1,080 Level Jacksonville Center
03:12PM 33.9511 -79.4128 231° Southwest 453 521 33,900 -1,980 Descending Jacksonville Center
03:13PM 33.8769 -79.5231 231° Southwest 448 516 32,100 -1,500 Descending Jacksonville Center
03:14PM 33.7986 -79.6411 231° Southwest 448 516 30,900 -1,080 Descending Jacksonville Center
03:15PM 33.7183 -79.7614 231° Southwest 453 521 30,000 -480 Descending Jacksonville Center
03:16PM 33.6419 -79.8814 233° Southwest 458 527 30,000  Level Jacksonville Center
03:17PM 33.5525 -79.9842 224° Southwest 453 521 30,000 -480 Level Jacksonville Center
03:18PM 33.4481 -80.0747 216° Southwest 453 521 29,100 -1,740 Descending Jacksonville Center
03:19PM 33.3375 -80.1728 217° Southwest 459 528 26,500 -2,400 Descending Jacksonville Center
03:20PM 33.2392 -80.2575 216° Southwest 459 528 24,400 -1,920 Descending Jacksonville Center
03:21PM 33.1489 -80.3322 215° Southwest 443 510 22,700 -2,100 Descending Jacksonville Center
03:22PM 33.0464 -80.4244 217° Southwest 437 503 20,300 -2,160 Descending Jacksonville Center
03:23PM 32.9539 -80.5011 215° Southwest 432 497 18,400 -1,920 Descending Jacksonville Center
03:24PM 32.8675 -80.5753 216° Southwest 410 472 16,600 -1,800 Descending Jacksonville Center
03:25PM 32.7833 -80.6464 215° Southwest 395 455 14,800 -1,800 Descending Jacksonville Center
03:26PM 32.7031 -80.7128 215° Southwest 376 433 13,000 -1,800 Descending Jacksonville Center
03:27PM 32.6250 -80.7811 216° Southwest 357 411 11,200 -1,440 Descending Jacksonville Center
03:28PM 32.5550 -80.8369 214° Southwest 319 367 10,200 -1,380 Descending Jacksonville Center
03:29PM 32.4972 -80.8925 219° Southwest 289 333 8,500 -1,200 Descending Jacksonville Center
03:30PM 32.4436 -80.9381 216° Southwest 273 314 7,900 -1,200 Descending Jacksonville Center
03:31PM 32.3778 -80.9936 215° Southwest 267 307 6,200 -1,620 Descending Jacksonville Center
03:32PM 32.3261 -81.0364 215° Southwest 262 302 4,700 -1,200 Descending Jacksonville Center
03:33PM 32.2981 -81.1106 246° West 232 267 3,900 -960 Descending Jacksonville Center
03:34PM 32.2825 -81.1847 256° West 232 267 2,800 -960 Descending Jacksonville Center
03:35PM 32.2583 -81.2514 247° West 227 261 2,000 -420 Descending Jacksonville Center
03:36PM 32.2189 -81.2892 219° Southwest 209 241 2,000  Level Jacksonville Center
03:37PM 32.1778 -81.3192 212° Southwest 190 219 2,000 -300 Level Jacksonville Center
03:38PM 32.1378 -81.3075 166° South 159 183 1,500 -600 Descending Jacksonville Center
03:39PM 32.1269 -81.2661 107° East 122 140 800 -660 Descending Jacksonville Center
03:40PM 32.1286 -81.2294 87° East 122 140 200 11,580 Descending Jacksonville Center
03:41PM 32.1175 -81.1878 107° East 122 140 24,000 23,760 Climbing Jacksonville Center
03:43PM 32.1167 -81.2000 270° West  Level FlightAware Approximate